Mims, Florida
Current Conditions -  °F | °C
As of 3:58 PM on Thursday 27 Nov 2014 (Local Time) from KTTS Reporting Station
Clear Clear  
Wind Chill: 67°   Ceiling: Unl
Heat Index: 67°   Visibility: 10mi
Dew Point: 47°   Wind: 13mph
Humidity: 50%   Direction: 340°NNW
Pressure: 30.17"   Gusts: NA
Location:  28.66°N, 80.85°W
Report Text: KTTS 272058Z AUTO 34011KT 10SM CLR 19/09 A3017 RMK AO2 SLP220 T01940086 55005 VISNO RWY33 CHINO RWY33
Loading
Personal Weather Stations






























Interactive Weather Map New forecast layout! Learn more

10-Day Weather Forecast

Advertisements
Track Severe Weather on mobile